sensor_id;sensor_type;location;lat;lon;timestamp;pressure;altitude;pressure_sealevel;temperature;humidity
64053;BME280;50299;49.524;8.536;2023-03-16T00:02:01;101003.88;;;-3.81;83.52
64053;BME280;50299;49.524;8.536;2023-03-16T00:04:28;101009.91;;;-3.79;81.87
64053;BME280;50299;49.524;8.536;2023-03-16T00:06:56;101007.56;;;-4.01;79.19
64053;BME280;50299;49.524;8.536;2023-03-16T00:09:23;101010.44;;;-3.95;80.89
64053;BME280;50299;49.524;8.536;2023-03-16T00:12:00;101004.94;;;-3.14;96.02
64053;BME280;50299;49.524;8.536;2023-03-16T00:14:30;101007.59;;;-2.40;98.50
64053;BME280;50299;49.524;8.536;2023-03-16T00:16:57;101008.47;;;-2.58;90.37
64053;BME280;50299;49.524;8.536;2023-03-16T00:19:24;101011.16;;;-3.32;81.23
64053;BME280;50299;49.524;8.536;2023-03-16T00:21:50;101012.09;;;-3.44;85.65
64053;BME280;50299;49.524;8.536;2023-03-16T00:24:18;101004.88;;;-2.70;96.65
64053;BME280;50299;49.524;8.536;2023-03-16T00:26:45;101015.53;;;-2.57;92.66
64053;BME280;50299;49.524;8.536;2023-03-16T00:29:12;101015.38;;;-2.62;89.05
64053;BME280;50299;49.524;8.536;2023-03-16T00:31:40;101017.03;;;-3.16;81.34
64053;BME280;50299;49.524;8.536;2023-03-16T00:34:10;101016.66;;;-3.02;85.88
64053;BME280;50299;49.524;8.536;2023-03-16T00:36:36;101016.28;;;-2.50;92.39
64053;BME280;50299;49.524;8.536;2023-03-16T00:39:06;101017.66;;;-2.59;87.07
64053;BME280;50299;49.524;8.536;2023-03-16T00:41:33;101006.25;;;-2.49;86.97
64053;BME280;50299;49.524;8.536;2023-03-16T00:44:05;101015.16;;;-2.61;83.25
64053;BME280;50299;49.524;8.536;2023-03-16T00:46:31;101000.66;;;-1.53;100.00
64053;BME280;50299;49.524;8.536;2023-03-16T00:48:58;100997.94;;;-1.06;100.00
64053;BME280;50299;49.524;8.536;2023-03-16T00:51:24;101001.22;;;-1.62;89.45
64053;BME280;50299;49.524;8.536;2023-03-16T00:53:55;101003.13;;;-1.39;97.81
64053;BME280;50299;49.524;8.536;2023-03-16T00:56:22;100994.25;;;-0.99;100.00
64053;BME280;50299;49.524;8.536;2023-03-16T00:58:48;101002.84;;;-1.73;85.86
64053;BME280;50299;49.524;8.536;2023-03-16T01:01:16;100996.38;;;-1.60;95.07
64053;BME280;50299;49.524;8.536;2023-03-16T01:03:44;100992.72;;;-1.66;91.33
64053;BME280;50299;49.524;8.536;2023-03-16T01:06:14;100996.06;;;-2.06;87.23
64053;BME280;50299;49.524;8.536;2023-03-16T01:08:43;100999.19;;;-2.20;85.68
64053;BME280;50299;49.524;8.536;2023-03-16T01:11:12;100994.22;;;-2.23;87.73
64053;BME280;50299;49.524;8.536;2023-03-16T01:13:39;100987.06;;;-2.78;78.42
64053;BME280;50299;49.524;8.536;2023-03-16T01:16:06;100980.06;;;-3.22;78.64
64053;BME280;50299;49.524;8.536;2023-03-16T01:18:33;100967.13;;;-3.02;88.85
64053;BME280;50299;49.524;8.536;2023-03-16T01:21:04;100964.25;;;-2.70;93.37
64053;BME280;50299;49.524;8.536;2023-03-16T01:23:31;100972.88;;;-2.32;94.94
64053;BME280;50299;49.524;8.536;2023-03-16T01:26:00;100976.03;;;-3.13;80.15
64053;BME280;50299;49.524;8.536;2023-03-16T01:28:30;100969.50;;;-4.56;79.32
64053;BME280;50299;49.524;8.536;2023-03-16T01:31:00;100976.13;;;-4.58;80.06
64053;BME280;50299;49.524;8.536;2023-03-16T01:33:31;100974.38;;;-4.78;81.20
64053;BME280;50299;49.524;8.536;2023-03-16T01:36:11;100974.56;;;-4.34;88.08
64053;BME280;50299;49.524;8.536;2023-03-16T01:38:38;100968.66;;;-4.56;82.11
64053;BME280;50299;49.524;8.536;2023-03-16T01:41:06;100969.72;;;-3.94;92.86
64053;BME280;50299;49.524;8.536;2023-03-16T01:43:35;100965.06;;;-4.12;83.97
64053;BME280;50299;49.524;8.536;2023-03-16T01:48:39;100968.34;;;-4.41;82.45
64053;BME280;50299;49.524;8.536;2023-03-16T01:51:18;100968.06;;;-3.95;89.79
64053;BME280;50299;49.524;8.536;2023-03-16T01:53:48;100962.84;;;-3.71;88.94
64053;BME280;50299;49.524;8.536;2023-03-16T01:56:22;100957.78;;;-3.61;86.21
64053;BME280;50299;49.524;8.536;2023-03-16T01:58:54;100960.25;;;-3.60;83.18
64053;BME280;50299;49.524;8.536;2023-03-16T02:01:25;100944.88;;;-2.86;96.86
64053;BME280;50299;49.524;8.536;2023-03-16T02:04:04;100938.19;;;-3.57;81.03
64053;BME280;50299;49.524;8.536;2023-03-16T02:06:36;100949.50;;;-3.05;96.18
64053;BME280;50299;49.524;8.536;2023-03-16T02:09:03;100950.97;;;-2.90;93.35
64053;BME280;50299;49.524;8.536;2023-03-16T02:11:31;100962.81;;;-3.46;85.42
64053;BME280;50299;49.524;8.536;2023-03-16T02:14:02;100955.84;;;-4.04;83.94
64053;BME280;50299;49.524;8.536;2023-03-16T02:16:31;100944.63;;;-3.33;96.01
64053;BME280;50299;49.524;8.536;2023-03-16T02:18:58;100937.38;;;-2.84;97.17
64053;BME280;50299;49.524;8.536;2023-03-16T02:21:32;100937.25;;;-2.59;95.28
64053;BME280;50299;49.524;8.536;2023-03-16T02:24:01;100943.13;;;-2.62;91.09
64053;BME280;50299;49.524;8.536;2023-03-16T02:26:51;100929.78;;;-2.75;90.14
64053;BME280;50299;49.524;8.536;2023-03-16T02:29:43;100930.25;;;-3.52;78.90
64053;BME280;50299;49.524;8.536;2023-03-16T02:32:11;100921.91;;;-4.88;80.13
64053;BME280;50299;49.524;8.536;2023-03-16T02:34:40;100921.59;;;-5.12;81.57
64053;BME280;50299;49.524;8.536;2023-03-16T02:37:07;100925.34;;;-5.06;82.51
64053;BME280;50299;49.524;8.536;2023-03-16T02:39:34;100921.16;;;-4.64;87.51
64053;BME280;50299;49.524;8.536;2023-03-16T02:42:01;100914.72;;;-3.81;96.88
64053;BME280;50299;49.524;8.536;2023-03-16T02:44:32;100912.22;;;-3.58;93.63
64053;BME280;50299;49.524;8.536;2023-03-16T02:47:03;100913.66;;;-3.00;100.00
64053;BME280;50299;49.524;8.536;2023-03-16T02:49:39;100915.69;;;-2.65;98.26
64053;BME280;50299;49.524;8.536;2023-03-16T02:52:07;100923.81;;;-3.76;79.97
64053;BME280;50299;49.524;8.536;2023-03-16T02:54:34;100920.66;;;-4.16;84.57
64053;BME280;50299;49.524;8.536;2023-03-16T02:57:01;100913.84;;;-3.75;88.34
64053;BME280;50299;49.524;8.536;2023-03-16T02:59:27;100910.53;;;-3.77;83.53
64053;BME280;50299;49.524;8.536;2023-03-16T03:01:54;100907.34;;;-3.92;78.68
64053;BME280;50299;49.524;8.536;2023-03-16T03:04:20;100904.25;;;-3.96;79.86
64053;BME280;50299;49.524;8.536;2023-03-16T03:06:49;100903.31;;;-4.08;78.49
64053;BME280;50299;49.524;8.536;2023-03-16T03:09:16;100894.50;;;-4.22;79.39
64053;BME280;50299;49.524;8.536;2023-03-16T03:11:44;100892.06;;;-3.80;88.70
64053;BME280;50299;49.524;8.536;2023-03-16T03:14:11;100889.41;;;-3.62;87.42
64053;BME280;50299;49.524;8.536;2023-03-16T03:16:41;100884.06;;;-3.13;93.05
64053;BME280;50299;49.524;8.536;2023-03-16T03:19:12;100886.59;;;-2.70;95.22
64053;BME280;50299;49.524;8.536;2023-03-16T03:21:39;100885.22;;;-2.91;88.75
64053;BME280;50299;49.524;8.536;2023-03-16T03:24:07;100885.78;;;-3.19;82.25
64053;BME280;50299;49.524;8.536;2023-03-16T03:26:33;100888.00;;;-2.97;88.68
64053;BME280;50299;49.524;8.536;2023-03-16T03:29:00;100882.91;;;-3.06;85.59
64053;BME280;50299;49.524;8.536;2023-03-16T03:31:27;100887.44;;;-3.55;79.85
64053;BME280;50299;49.524;8.536;2023-03-16T03:33:54;100879.31;;;-3.55;82.78
64053;BME280;50299;49.524;8.536;2023-03-16T03:36:20;100878.91;;;-3.33;88.17
64053;BME280;50299;49.524;8.536;2023-03-16T03:38:47;100878.53;;;-3.37;86.60
64053;BME280;50299;49.524;8.536;2023-03-16T03:41:14;100876.28;;;-3.58;84.90
64053;BME280;50299;49.524;8.536;2023-03-16T03:43:41;100873.53;;;-3.95;83.19
64053;BME280;50299;49.524;8.536;2023-03-16T03:46:07;100878.41;;;-3.30;96.01
64053;BME280;50299;49.524;8.536;2023-03-16T03:48:34;100869.59;;;-2.59;100.00
64053;BME280;50299;49.524;8.536;2023-03-16T03:51:02;100868.41;;;-1.86;100.00
64053;BME280;50299;49.524;8.536;2023-03-16T03:53:30;100863.44;;;-1.77;99.12
64053;BME280;50299;49.524;8.536;2023-03-16T03:55:57;100864.81;;;-1.86;96.49
64053;BME280;50299;49.524;8.536;2023-03-16T03:58:23;100870.69;;;-2.36;90.08
64053;BME280;50299;49.524;8.536;2023-03-16T04:00:50;100866.03;;;-2.89;87.38
64053;BME280;50299;49.524;8.536;2023-03-16T04:03:17;100866.97;;;-3.62;84.04
64053;BME280;50299;49.524;8.536;2023-03-16T04:05:43;100871.50;;;-3.99;84.77
64053;BME280;50299;49.524;8.536;2023-03-16T04:08:10;100868.84;;;-3.88;88.08
64053;BME280;50299;49.524;8.536;2023-03-16T04:10:37;100867.28;;;-3.95;85.47
64053;BME280;50299;49.524;8.536;2023-03-16T04:13:03;100867.84;;;-3.68;89.73
64053;BME280;50299;49.524;8.536;2023-03-16T04:15:31;100867.25;;;-3.70;88.12
64053;BME280;50299;49.524;8.536;2023-03-16T04:17:59;100859.59;;;-3.37;92.13
64053;BME280;50299;49.524;8.536;2023-03-16T04:20:25;100868.81;;;-3.81;85.10
64053;BME280;50299;49.524;8.536;2023-03-16T04:22:52;100873.00;;;-3.67;89.01
64053;BME280;50299;49.524;8.536;2023-03-16T04:25:24;100878.22;;;-3.47;89.62
64053;BME280;50299;49.524;8.536;2023-03-16T04:27:51;100878.91;;;-3.33;89.03
64053;BME280;50299;49.524;8.536;2023-03-16T04:30:18;100887.22;;;-2.56;99.15
64053;BME280;50299;49.524;8.536;2023-03-16T04:32:44;100884.84;;;-2.22;99.70
64053;BME280;50299;49.524;8.536;2023-03-16T04:35:11;100888.28;;;-2.04;100.00
64053;BME280;50299;49.524;8.536;2023-03-16T04:37:37;100884.69;;;-1.34;100.00
64053;BME280;50299;49.524;8.536;2023-03-16T04:40:04;100889.91;;;-0.92;100.00
64053;BME280;50299;49.524;8.536;2023-03-16T04:42:36;100885.09;;;-2.00;88.42
64053;BME280;50299;49.524;8.536;2023-03-16T04:45:03;100883.72;;;-2.45;88.29
64053;BME280;50299;49.524;8.536;2023-03-16T04:47:30;100876.91;;;-2.47;91.27
64053;BME280;50299;49.524;8.536;2023-03-16T04:50:02;100872.75;;;-2.62;89.69
64053;BME280;50299;49.524;8.536;2023-03-16T04:52:31;100871.44;;;-2.71;90.47
64053;BME280;50299;49.524;8.536;2023-03-16T04:54:58;100862.38;;;-2.65;91.13
64053;BME280;50299;49.524;8.536;2023-03-16T04:57:24;100871.66;;;-3.76;78.25
64053;BME280;50299;49.524;8.536;2023-03-16T04:59:51;100861.38;;;-3.86;90.00
64053;BME280;50299;49.524;8.536;2023-03-16T05:02:18;100859.81;;;-3.75;89.49
64053;BME280;50299;49.524;8.536;2023-03-16T05:04:45;100868.66;;;-3.31;92.98
64053;BME280;50299;49.524;8.536;2023-03-16T05:07:12;100871.09;;;-2.93;95.78
64053;BME280;50299;49.524;8.536;2023-03-16T05:09:39;100859.97;;;-2.31;100.00
64053;BME280;50299;49.524;8.536;2023-03-16T05:12:07;100854.91;;;-3.11;87.22
64053;BME280;50299;49.524;8.536;2023-03-16T05:14:34;100848.94;;;-2.71;94.35
64053;BME280;50299;49.524;8.536;2023-03-16T05:17:07;100860.66;;;-2.36;97.50
64053;BME280;50299;49.524;8.536;2023-03-16T05:19:34;100858.72;;;-2.70;89.48
64053;BME280;50299;49.524;8.536;2023-03-16T05:22:00;100865.31;;;-3.45;80.92
64053;BME280;50299;49.524;8.536;2023-03-16T05:24:27;100856.28;;;-3.57;87.40
64053;BME280;50299;49.524;8.536;2023-03-16T05:26:53;100856.78;;;-3.30;92.01
64053;BME280;50299;49.524;8.536;2023-03-16T05:29:20;100864.03;;;-3.79;83.63
64053;BME280;50299;49.524;8.536;2023-03-16T05:31:46;100858.91;;;-3.87;84.57
64053;BME280;50299;49.524;8.536;2023-03-16T05:34:16;100859.53;;;-3.48;89.85
64053;BME280;50299;49.524;8.536;2023-03-16T05:36:43;100847.34;;;-3.39;91.69
64053;BME280;50299;49.524;8.536;2023-03-16T05:39:10;100851.00;;;-3.15;92.12
64053;BME280;50299;49.524;8.536;2023-03-16T05:41:37;100861.09;;;-3.59;86.25
64053;BME280;50299;49.524;8.536;2023-03-16T05:44:04;100864.91;;;-3.67;86.56
64053;BME280;50299;49.524;8.536;2023-03-16T05:46:31;100855.50;;;-4.26;82.96
64053;BME280;50299;49.524;8.536;2023-03-16T05:49:03;100849.88;;;-3.99;91.38
64053;BME280;50299;49.524;8.536;2023-03-16T05:51:33;100845.63;;;-3.70;93.08
64053;BME280;50299;49.524;8.536;2023-03-16T05:54:01;100840.84;;;-3.50;91.77
64053;BME280;50299;49.524;8.536;2023-03-16T05:56:27;100833.97;;;-3.71;86.24
64053;BME280;50299;49.524;8.536;2023-03-16T05:58:55;100841.19;;;-3.65;87.67
64053;BME280;50299;49.524;8.536;2023-03-16T06:01:22;100837.16;;;-3.37;89.41
64053;BME280;50299;49.524;8.536;2023-03-16T06:03:49;100825.56;;;-3.63;83.21
64053;BME280;50299;49.524;8.536;2023-03-16T06:06:19;100826.63;;;-3.82;84.92
64053;BME280;50299;49.524;8.536;2023-03-16T06:08:47;100826.78;;;-3.59;91.50
64053;BME280;50299;49.524;8.536;2023-03-16T06:11:14;100827.78;;;-3.05;93.06
64053;BME280;50299;49.524;8.536;2023-03-16T06:13:42;100823.44;;;-3.24;90.59
64053;BME280;50299;49.524;8.536;2023-03-16T06:16:09;100818.19;;;-3.19;91.28
64053;BME280;50299;49.524;8.536;2023-03-16T06:18:42;100813.50;;;-2.82;93.53
64053;BME280;50299;49.524;8.536;2023-03-16T06:21:09;100806.19;;;-2.04;94.45
64053;BME280;50299;49.524;8.536;2023-03-16T06:23:36;100805.84;;;-1.44;95.36
64053;BME280;50299;49.524;8.536;2023-03-16T06:26:03;100815.13;;;-1.80;89.62
64053;BME280;50299;49.524;8.536;2023-03-16T06:28:30;100810.06;;;-1.88;90.82
64053;BME280;50299;49.524;8.536;2023-03-16T06:30:57;100816.91;;;-1.97;89.73
64053;BME280;50299;49.524;8.536;2023-03-16T06:33:24;100810.66;;;-1.34;97.18
64053;BME280;50299;49.524;8.536;2023-03-16T06:35:55;100815.63;;;-0.74;100.00
64053;BME280;50299;49.524;8.536;2023-03-16T06:38:25;100822.66;;;0.11;100.00
64053;BME280;50299;49.524;8.536;2023-03-16T06:40:54;100830.81;;;0.72;100.00
64053;BME280;50299;49.524;8.536;2023-03-16T06:43:21;100837.13;;;1.00;100.00
64053;BME280;50299;49.524;8.536;2023-03-16T06:45:48;100842.31;;;0.35;93.62
64053;BME280;50299;49.524;8.536;2023-03-16T06:48:17;100835.63;;;-0.30;92.36
64053;BME280;50299;49.524;8.536;2023-03-16T06:50:44;100830.88;;;-0.22;92.18
64053;BME280;50299;49.524;8.536;2023-03-16T06:53:14;100837.53;;;0.04;96.71
64053;BME280;50299;49.524;8.536;2023-03-16T06:55:42;100843.75;;;0.82;100.00
64053;BME280;50299;49.524;8.536;2023-03-16T06:58:12;100832.88;;;1.36;100.00
64053;BME280;50299;49.524;8.536;2023-03-16T07:00:46;100838.25;;;1.53;100.00
64053;BME280;50299;49.524;8.536;2023-03-16T07:03:14;100834.88;;;0.91;97.15
64053;BME280;50299;49.524;8.536;2023-03-16T07:05:43;100855.38;;;0.99;96.24
64053;BME280;50299;49.524;8.536;2023-03-16T07:08:12;100848.81;;;-0.21;87.01
64053;BME280;50299;49.524;8.536;2023-03-16T07:10:41;100850.53;;;-0.49;93.33
64053;BME280;50299;49.524;8.536;2023-03-16T07:13:11;100844.25;;;0.79;100.00
64053;BME280;50299;49.524;8.536;2023-03-16T07:15:40;100858.97;;;1.86;100.00
64053;BME280;50299;49.524;8.536;2023-03-16T07:18:06;100841.38;;;2.51;100.00
64053;BME280;50299;49.524;8.536;2023-03-16T07:20:35;100846.25;;;3.22;100.00
64053;BME280;50299;49.524;8.536;2023-03-16T07:23:03;100849.34;;;3.41;100.00
64053;BME280;50299;49.524;8.536;2023-03-16T07:25:30;100843.88;;;3.51;100.00
64053;BME280;50299;49.524;8.536;2023-03-16T07:27:57;100852.72;;;2.95;98.84
64053;BME280;50299;49.524;8.536;2023-03-16T07:30:23;100840.69;;;2.81;99.87
64053;BME280;50299;49.524;8.536;2023-03-16T07:32:55;100854.16;;;2.45;95.28
64053;BME280;50299;49.524;8.536;2023-03-16T07:35:22;100851.31;;;2.83;100.00
64053;BME280;50299;49.524;8.536;2023-03-16T07:37:49;100852.13;;;2.78;97.62
64053;BME280;50299;49.524;8.536;2023-03-16T07:40:16;100850.72;;;2.70;100.00
64053;BME280;50299;49.524;8.536;2023-03-16T07:42:46;100855.56;;;3.21;100.00
64053;BME280;50299;49.524;8.536;2023-03-16T07:45:13;100856.56;;;3.00;96.98
64053;BME280;50299;49.524;8.536;2023-03-16T07:47:43;100858.25;;;3.06;98.45
64053;BME280;50299;49.524;8.536;2023-03-16T07:50:12;100854.53;;;3.73;100.00
64053;BME280;50299;49.524;8.536;2023-03-16T07:52:41;100857.28;;;3.63;96.71
64053;BME280;50299;49.524;8.536;2023-03-16T07:55:09;100863.03;;;3.72;99.13
64053;BME280;50299;49.524;8.536;2023-03-16T07:57:35;100849.03;;;4.29;100.00
64053;BME280;50299;49.524;8.536;2023-03-16T08:00:05;100852.56;;;4.45;100.00
64053;BME280;50299;49.524;8.536;2023-03-16T08:02:36;100846.78;;;4.47;97.44
64053;BME280;50299;49.524;8.536;2023-03-16T08:05:05;100848.34;;;4.73;100.00
64053;BME280;50299;49.524;8.536;2023-03-16T08:07:36;100848.59;;;4.87;99.34
64053;BME280;50299;49.524;8.536;2023-03-16T08:10:03;100839.94;;;5.19;100.00
64053;BME280;50299;49.524;8.536;2023-03-16T08:12:32;100843.28;;;5.50;100.00
64053;BME280;50299;49.524;8.536;2023-03-16T08:14:59;100846.59;;;5.81;99.82
64053;BME280;50299;49.524;8.536;2023-03-16T08:17:25;100845.16;;;5.55;95.28
64053;BME280;50299;49.524;8.536;2023-03-16T08:19:52;100840.00;;;5.04;92.69
64053;BME280;50299;49.524;8.536;2023-03-16T08:22:19;100838.19;;;4.79;90.91
64053;BME280;50299;49.524;8.536;2023-03-16T08:24:46;100842.91;;;4.63;87.38
64053;BME280;50299;49.524;8.536;2023-03-16T08:27:16;100842.94;;;4.58;89.47
64053;BME280;50299;49.524;8.536;2023-03-16T08:29:45;100839.91;;;4.59;89.93
64053;BME280;50299;49.524;8.536;2023-03-16T08:32:12;100843.53;;;4.45;85.47
64053;BME280;50299;49.524;8.536;2023-03-16T08:34:40;100841.50;;;4.71;88.63
64053;BME280;50299;49.524;8.536;2023-03-16T08:37:06;100852.25;;;4.57;74.44
64053;BME280;50299;49.524;8.536;2023-03-16T08:39:34;100839.63;;;4.66;71.80
64053;BME280;50299;49.524;8.536;2023-03-16T08:42:02;100848.03;;;4.80;78.23
64053;BME280;50299;49.524;8.536;2023-03-16T08:44:29;100831.16;;;5.22;76.06
64053;BME280;50299;49.524;8.536;2023-03-16T08:46:55;100837.84;;;5.45;68.92
64053;BME280;50299;49.524;8.536;2023-03-16T08:49:24;100820.81;;;5.48;77.21
64053;BME280;50299;49.524;8.536;2023-03-16T08:51:51;100817.56;;;5.02;65.15
64053;BME280;50299;49.524;8.536;2023-03-16T08:54:17;100815.06;;;5.05;67.11
64053;BME280;50299;49.524;8.536;2023-03-16T08:56:44;100807.91;;;5.09;66.71
64053;BME280;50299;49.524;8.536;2023-03-16T08:59:10;100809.22;;;5.17;69.70
64053;BME280;50299;49.524;8.536;2023-03-16T09:01:57;100814.97;;;5.60;69.04
64053;BME280;50299;49.524;8.536;2023-03-16T09:04:26;100807.84;;;5.20;58.43
64053;BME280;50299;49.524;8.536;2023-03-16T09:06:54;100813.25;;;5.69;67.34
64053;BME280;50299;49.524;8.536;2023-03-16T09:09:35;100803.78;;;5.85;71.11
64053;BME280;50299;49.524;8.536;2023-03-16T09:12:10;100804.25;;;6.16;63.51
64053;BME280;50299;49.524;8.536;2023-03-16T09:14:40;100807.66;;;6.08;61.74
64053;BME280;50299;49.524;8.536;2023-03-16T09:17:07;100812.13;;;5.99;58.91
64053;BME280;50299;49.524;8.536;2023-03-16T09:19:34;100813.31;;;5.93;57.12
64053;BME280;50299;49.524;8.536;2023-03-16T09:22:17;100813.53;;;5.68;57.74
64053;BME280;50299;49.524;8.536;2023-03-16T09:24:45;100815.06;;;5.79;63.11
64053;BME280;50299;49.524;8.536;2023-03-16T09:27:12;100820.47;;;5.89;57.57
64053;BME280;50299;49.524;8.536;2023-03-16T09:29:38;100820.97;;;5.96;51.56
64053;BME280;50299;49.524;8.536;2023-03-16T09:32:07;100812.06;;;5.80;63.27
64053;BME280;50299;49.524;8.536;2023-03-16T09:34:34;100809.00;;;6.11;55.16
64053;BME280;50299;49.524;8.536;2023-03-16T09:37:00;100812.81;;;6.15;53.60
64053;BME280;50299;49.524;8.536;2023-03-16T09:39:27;100809.75;;;6.16;50.69
64053;BME280;50299;49.524;8.536;2023-03-16T09:41:59;100804.16;;;5.74;51.39
64053;BME280;50299;49.524;8.536;2023-03-16T09:44:35;100795.78;;;5.60;55.96
64053;BME280;50299;49.524;8.536;2023-03-16T09:47:10;100795.38;;;5.37;51.98
64053;BME280;50299;49.524;8.536;2023-03-16T09:49:44;100793.16;;;5.45;62.12
64053;BME280;50299;49.524;8.536;2023-03-16T09:57:38;100781.44;;;6.26;55.30
64053;BME280;50299;49.524;8.536;2023-03-16T10:00:16;100785.47;;;6.34;56.05
64053;BME280;50299;49.524;8.536;2023-03-16T10:03:00;100783.47;;;6.39;55.65
64053;BME280;50299;49.524;8.536;2023-03-16T10:05:34;100784.88;;;6.80;54.07
64053;BME280;50299;49.524;8.536;2023-03-16T10:11:02;100777.88;;;6.69;50.09
64053;BME280;50299;49.524;8.536;2023-03-16T10:16:36;100769.44;;;6.84;51.26
64053;BME280;50299;49.524;8.536;2023-03-16T10:19:13;100763.25;;;7.11;49.06
64053;BME280;50299;49.524;8.536;2023-03-16T10:21:47;100761.03;;;7.13;48.79
64053;BME280;50299;49.524;8.536;2023-03-16T10:24:22;100756.03;;;7.53;53.56
64053;BME280;50299;49.524;8.536;2023-03-16T10:26:56;100759.69;;;7.29;47.50
64053;BME280;50299;49.524;8.536;2023-03-16T10:29:34;100764.16;;;7.25;56.16
64053;BME280;50299;49.524;8.536;2023-03-16T10:32:16;100768.66;;;6.78;48.74
64053;BME280;50299;49.524;8.536;2023-03-16T10:34:51;100766.84;;;7.63;53.17
64053;BME280;50299;49.524;8.536;2023-03-16T10:37:19;100768.66;;;7.86;54.11
64053;BME280;50299;49.524;8.536;2023-03-16T10:39:47;100766.50;;;7.97;50.77
64053;BME280;50299;49.524;8.536;2023-03-16T10:42:19;100764.88;;;8.10;45.02
64053;BME280;50299;49.524;8.536;2023-03-16T10:44:47;100761.56;;;8.27;54.58
64053;BME280;50299;49.524;8.536;2023-03-16T10:47:21;100766.22;;;8.54;52.63
64053;BME280;50299;49.524;8.536;2023-03-16T10:49:56;100766.44;;;8.44;47.95
64053;BME280;50299;49.524;8.536;2023-03-16T10:54:56;100758.69;;;8.59;45.87
64053;BME280;50299;49.524;8.536;2023-03-16T10:59:54;100746.13;;;9.03;49.13
64053;BME280;50299;49.524;8.536;2023-03-16T11:02:30;100744.78;;;9.15;49.22
64053;BME280;50299;49.524;8.536;2023-03-16T11:04:58;100749.41;;;9.05;45.51
64053;BME280;50299;49.524;8.536;2023-03-16T11:07:24;100751.34;;;8.69;44.03
64053;BME280;50299;49.524;8.536;2023-03-16T11:09:53;100751.47;;;9.00;46.61
64053;BME280;50299;49.524;8.536;2023-03-16T11:12:26;100743.91;;;9.50;49.06
64053;BME280;50299;49.524;8.536;2023-03-16T11:14:54;100732.78;;;9.42;50.42
64053;BME280;50299;49.524;8.536;2023-03-16T11:17:35;100746.53;;;9.10;45.24
64053;BME280;50299;49.524;8.536;2023-03-16T11:20:05;100742.63;;;9.11;51.42
64053;BME280;50299;49.524;8.536;2023-03-16T11:22:45;100734.22;;;8.03;45.54
64053;BME280;50299;49.524;8.536;2023-03-16T11:25:18;100736.97;;;8.44;48.83
64053;BME280;50299;49.524;8.536;2023-03-16T11:30:50;100725.97;;;8.94;47.69
64053;BME280;50299;49.524;8.536;2023-03-16T11:33:21;100728.22;;;9.59;47.67
64053;BME280;50299;49.524;8.536;2023-03-16T11:41:07;100724.16;;;8.76;41.56
64053;BME280;50299;49.524;8.536;2023-03-16T11:43:56;100725.16;;;9.16;42.45
64053;BME280;50299;49.524;8.536;2023-03-16T11:46:41;100723.13;;;9.75;45.12
64053;BME280;50299;49.524;8.536;2023-03-16T11:57:32;100700.97;;;8.27;43.48
64053;BME280;50299;49.524;8.536;2023-03-16T12:00:23;100693.38;;;9.19;47.29
64053;BME280;50299;49.524;8.536;2023-03-16T12:03:28;100693.31;;;9.32;45.17
64053;BME280;50299;49.524;8.536;2023-03-16T12:11:34;100670.00;;;10.09;44.51
64053;BME280;50299;49.524;8.536;2023-03-16T12:14:19;100675.00;;;10.07;41.64
64053;BME280;50299;49.524;8.536;2023-03-16T12:16:59;100681.78;;;10.50;42.61
64053;BME280;50299;49.524;8.536;2023-03-16T12:22:19;100670.97;;;10.05;38.82
64053;BME280;50299;49.524;8.536;2023-03-16T12:24:49;100669.81;;;10.06;40.57
64053;BME280;50299;49.524;8.536;2023-03-16T12:27:36;100656.09;;;10.58;43.00
64053;BME280;50299;49.524;8.536;2023-03-16T12:30:30;100661.38;;;10.11;37.15
64053;BME280;50299;49.524;8.536;2023-03-16T12:33:17;100652.59;;;9.69;42.71
64053;BME280;50299;49.524;8.536;2023-03-16T12:39:12;100658.63;;;10.20;42.43
64053;BME280;50299;49.524;8.536;2023-03-16T12:41:58;100645.69;;;10.55;42.73
64053;BME280;50299;49.524;8.536;2023-03-16T12:49:43;100639.88;;;9.99;44.78
64053;BME280;50299;49.524;8.536;2023-03-16T12:52:12;100643.50;;;10.08;41.40
64053;BME280;50299;49.524;8.536;2023-03-16T12:54:53;100639.84;;;9.82;42.91
64053;BME280;50299;49.524;8.536;2023-03-16T12:57:34;100632.41;;;9.91;44.52
64053;BME280;50299;49.524;8.536;2023-03-16T13:00:04;100622.88;;;10.15;39.89
64053;BME280;50299;49.524;8.536;2023-03-16T13:02:40;100619.69;;;9.81;39.66
64053;BME280;50299;49.524;8.536;2023-03-16T13:05:13;100611.69;;;9.71;43.36
64053;BME280;50299;49.524;8.536;2023-03-16T13:07:49;100608.41;;;9.60;40.13
64053;BME280;50299;49.524;8.536;2023-03-16T13:10:17;100610.47;;;9.95;41.95
64053;BME280;50299;49.524;8.536;2023-03-16T13:12:48;100606.19;;;10.54;39.91
64053;BME280;50299;49.524;8.536;2023-03-16T13:18:18;100612.00;;;11.14;37.51
64053;BME280;50299;49.524;8.536;2023-03-16T13:20:59;100608.63;;;10.99;38.59
64053;BME280;50299;49.524;8.536;2023-03-16T13:23:52;100603.91;;;11.47;39.55
64053;BME280;50299;49.524;8.536;2023-03-16T13:26:38;100606.84;;;11.50;37.55
64053;BME280;50299;49.524;8.536;2023-03-16T13:29:18;100600.41;;;11.67;37.84
64053;BME280;50299;49.524;8.536;2023-03-16T13:31:46;100594.19;;;11.79;36.52
64053;BME280;50299;49.524;8.536;2023-03-16T13:34:26;100592.66;;;11.05;35.08
64053;BME280;50299;49.524;8.536;2023-03-16T13:36:55;100599.22;;;11.39;37.44
64053;BME280;50299;49.524;8.536;2023-03-16T13:39:27;100582.22;;;11.57;36.00
64053;BME280;50299;49.524;8.536;2023-03-16T13:41:55;100578.44;;;11.62;35.56
64053;BME280;50299;49.524;8.536;2023-03-16T13:44:22;100574.94;;;11.82;37.23
64053;BME280;50299;49.524;8.536;2023-03-16T13:46:50;100566.81;;;12.07;37.24
64053;BME280;50299;49.524;8.536;2023-03-16T13:49:18;100552.06;;;11.94;39.04
64053;BME280;50299;49.524;8.536;2023-03-16T13:51:47;100564.34;;;12.14;37.68
64053;BME280;50299;49.524;8.536;2023-03-16T13:54:27;100549.81;;;11.58;39.71
64053;BME280;50299;49.524;8.536;2023-03-16T13:57:03;100547.41;;;11.01;36.82
64053;BME280;50299;49.524;8.536;2023-03-16T13:59:32;100551.69;;;10.64;37.70
64053;BME280;50299;49.524;8.536;2023-03-16T14:02:18;100534.47;;;10.15;39.36
64053;BME280;50299;49.524;8.536;2023-03-16T14:04:47;100544.09;;;10.26;36.46